createdAt,value
2022-08-02T00:03:27.705Z,5.33
2022-08-02T00:08:49.229Z,5.10
2022-08-02T00:14:11.529Z,5.77
2022-08-02T00:19:13.822Z,4.77
2022-08-02T00:24:29.935Z,6.63
2022-08-02T00:29:33.137Z,5.37
2022-08-02T00:34:38.066Z,5.43
2022-08-02T00:39:40.879Z,6.73
2022-08-02T00:44:43.551Z,6.27
2022-08-02T00:49:45.810Z,5.70
2022-08-02T00:54:48.052Z,6.07
2022-08-02T00:59:56.000Z,6.27
2022-08-02T01:04:58.254Z,5.50
2022-08-02T01:10:03.164Z,5.63
2022-08-02T01:15:36.134Z,5.47
2022-08-02T01:21:07.258Z,5.80
2022-08-02T01:26:24.578Z,5.40
2022-08-02T01:31:35.318Z,5.53
2022-08-02T01:36:40.923Z,5.43
2022-08-02T01:41:44.114Z,6.30
2022-08-02T01:47:10.823Z,5.43
2022-08-02T01:52:23.116Z,5.97
2022-08-02T01:57:26.858Z,4.87
2022-08-02T02:02:31.808Z,6.97
2022-08-02T02:07:35.446Z,6.53
2022-08-02T02:12:39.975Z,6.30
2022-08-02T02:18:11.008Z,5.43
2022-08-02T02:23:15.698Z,6.27
2022-08-02T02:28:30.535Z,6.30
2022-08-02T02:33:34.432Z,5.90
2022-08-02T02:38:57.814Z,5.50
2022-08-02T02:44:02.360Z,5.23
2022-08-02T02:49:04.663Z,6.50
2022-08-02T02:54:34.619Z,6.60
2022-08-02T02:59:50.013Z,6.90
2022-08-02T03:04:56.293Z,6.20
2022-08-02T03:10:00.233Z,6.83
2022-08-02T03:15:21.737Z,6.23
2022-08-02T03:20:23.999Z,7.60
2022-08-02T03:25:26.290Z,7.10
2022-08-02T03:30:28.433Z,7.03
2022-08-02T03:35:30.761Z,7.00
2022-08-02T03:40:33.105Z,9.10
2022-08-02T03:45:37.337Z,9.67
2022-08-02T03:50:58.506Z,8.60
2022-08-02T03:56:19.605Z,8.70
2022-08-02T04:01:40.946Z,8.30
2022-08-02T04:06:43.159Z,8.17
2022-08-02T04:11:47.370Z,7.90
2022-08-02T04:16:55.021Z,7.13
2022-08-02T04:21:58.608Z,8.17
2022-08-02T04:27:19.308Z,7.13
2022-08-02T04:32:24.158Z,6.40
2022-08-02T04:37:27.295Z,6.40
2022-08-02T04:42:29.598Z,6.13
2022-08-02T04:48:01.817Z,4.90
2022-08-02T04:52:54.093Z,6.10
2022-08-02T04:58:38.773Z,5.40
2022-08-02T05:03:37.556Z,5.17
2022-08-02T05:08:39.878Z,5.70
2022-08-02T05:13:58.602Z,5.80
2022-08-02T05:19:02.846Z,5.97
2022-08-02T05:24:05.957Z,4.97
2022-08-02T05:29:08.135Z,4.23
2022-08-02T05:34:12.088Z,3.77
2022-08-02T05:39:18.854Z,4.30
2022-08-02T05:44:22.029Z,4.00
2022-08-02T05:50:02.229Z,3.63
2022-08-02T05:56:33.500Z,4.53
2022-08-02T06:01:38.630Z,3.87
2022-08-02T06:07:07.299Z,3.97
2022-08-02T06:12:12.337Z,4.45
2022-08-02T06:17:14.700Z,3.47
2022-08-02T06:22:34.751Z,4.03
2022-08-02T06:27:40.451Z,4.10
2022-08-02T06:32:45.085Z,3.60
2022-08-02T06:37:59.064Z,4.10
2022-08-02T06:43:01.416Z,3.25
2022-08-02T06:48:05.004Z,3.97
2022-08-02T06:53:07.720Z,3.55
2022-08-02T06:58:09.935Z,2.90
2022-08-02T07:03:12.320Z,3.08
2022-08-02T07:08:18.410Z,3.13
2022-08-02T07:13:20.644Z,3.42
2022-08-02T07:18:24.235Z,2.67
2022-08-02T07:23:26.540Z,2.80
2022-08-02T07:28:28.732Z,3.25
2022-08-02T07:33:38.134Z,3.92
2022-08-02T07:38:41.483Z,3.95
2022-08-02T07:43:44.237Z,2.88
2022-08-02T07:48:48.085Z,2.40
2022-08-02T07:54:04.077Z,3.13
2022-08-02T07:59:07.694Z,2.97
2022-08-02T08:04:10.112Z,2.92
2022-08-02T08:09:12.907Z,2.90
2022-08-02T08:14:18.996Z,2.90
2022-08-02T08:19:21.228Z,2.78
2022-08-02T08:24:43.716Z,3.20
2022-08-02T08:29:51.226Z,3.42
2022-08-02T08:34:53.583Z,3.20
2022-08-02T08:39:58.314Z,2.67
2022-08-02T08:45:01.258Z,3.13
2022-08-02T08:50:18.930Z,3.30
2022-08-02T08:55:27.656Z,2.78
2022-08-02T09:00:31.399Z,3.38
2022-08-02T09:05:39.255Z,2.53
2022-08-02T09:10:45.235Z,3.13
2022-08-02T09:16:12.022Z,3.70
2022-08-02T09:21:17.881Z,2.92
2022-08-02T09:26:22.677Z,3.13
2022-08-02T09:31:25.162Z,3.28
2022-08-02T09:36:30.448Z,3.10
2022-08-02T09:41:37.870Z,3.47
2022-08-02T09:46:43.127Z,3.40
2022-08-02T09:51:53.729Z,3.70
2022-08-02T09:56:59.882Z,3.97
2022-08-02T10:02:14.826Z,3.75
2022-08-02T10:07:22.950Z,4.00
2022-08-02T10:12:25.698Z,3.72
2022-08-02T10:17:28.383Z,7.28
2022-08-02T10:22:30.875Z,4.80
2022-08-02T10:27:49.213Z,4.40
2022-08-02T10:32:57.303Z,3.40
2022-08-02T10:38:04.232Z,3.47
2022-08-02T10:43:09.777Z,3.78
2022-08-02T10:48:14.857Z,3.40
2022-08-02T10:53:33.182Z,3.53
2022-08-02T10:58:36.303Z,3.83
2022-08-02T11:03:40.942Z,3.72
2022-08-02T11:08:43.520Z,3.70
2022-08-02T11:14:03.490Z,3.65
2022-08-02T11:19:06.677Z,3.45
2022-08-02T11:24:27.957Z,2.97
2022-08-02T11:29:38.572Z,3.42
2022-08-02T11:34:41.683Z,3.55
2022-08-02T11:39:51.706Z,3.30
2022-08-02T11:44:54.003Z,3.25
2022-08-02T11:50:10.044Z,3.78
2022-08-02T11:55:14.258Z,4.00
2022-08-02T12:00:18.544Z,3.70
2022-08-02T12:05:51.118Z,3.60
2022-08-02T12:10:50.102Z,3.30
2022-08-02T12:15:52.323Z,3.60
2022-08-02T12:20:54.975Z,3.75
2022-08-02T12:26:03.475Z,3.40
2022-08-02T12:31:07.067Z,3.70
2022-08-02T12:36:18.817Z,3.90
2022-08-02T12:41:31.444Z,3.50
2022-08-02T12:46:35.539Z,3.30
2022-08-02T12:51:51.342Z,3.65
2022-08-02T12:57:12.874Z,3.88
2022-08-02T13:02:17.500Z,3.28
2022-08-02T13:07:20.210Z,3.97
2022-08-02T13:12:22.616Z,3.80
2022-08-02T13:17:24.994Z,3.90
2022-08-02T13:22:28.763Z,3.75
2022-08-02T13:27:32.360Z,4.18
2022-08-02T13:32:34.665Z,4.20
2022-08-02T13:37:40.029Z,4.53
2022-08-02T13:42:42.925Z,3.58
2022-08-02T13:47:57.619Z,4.10
2022-08-02T13:53:07.577Z,3.90
2022-08-02T13:58:10.007Z,3.70
2022-08-02T14:03:12.495Z,4.43
2022-08-02T14:08:18.441Z,3.53
2022-08-02T14:13:20.851Z,3.75
2022-08-02T14:18:23.156Z,3.95
2022-08-02T14:23:50.730Z,5.05
2022-08-02T14:28:47.770Z,3.80
2022-08-02T14:33:53.540Z,3.58
2022-08-02T14:38:56.363Z,4.50
2022-08-02T14:44:04.412Z,3.50
2022-08-02T14:49:08.352Z,3.90
2022-08-02T14:54:11.916Z,3.90
2022-08-02T14:59:16.939Z,3.55
2022-08-02T15:04:19.139Z,3.90
2022-08-02T15:09:21.766Z,3.65
2022-08-02T15:14:26.351Z,3.70
2022-08-02T15:19:56.197Z,3.72
2022-08-02T15:24:52.032Z,3.33
2022-08-02T15:30:00.626Z,3.85
2022-08-02T15:35:03.270Z,5.32
2022-08-02T15:40:06.403Z,4.50
2022-08-02T15:45:15.306Z,7.85
2022-08-02T15:50:18.879Z,5.38
2022-08-02T15:55:21.154Z,4.32
2022-08-02T16:00:23.436Z,4.65
2022-08-02T16:05:25.824Z,5.68
2022-08-02T16:10:28.620Z,6.68
2022-08-02T16:15:30.778Z,5.50
2022-08-02T16:20:33.031Z,4.95
2022-08-02T16:25:40.091Z,6.10
2022-08-02T16:30:54.333Z,4.78
2022-08-02T16:36:06.599Z,4.70
2022-08-02T16:41:09.125Z,6.80
2022-08-02T16:46:11.457Z,6.80
2022-08-02T16:51:14.205Z,6.53
2022-08-02T16:56:17.341Z,6.15
2022-08-02T17:01:27.156Z,5.68
2022-08-02T17:06:30.104Z,5.55
2022-08-02T17:11:32.378Z,5.25
2022-08-02T17:16:34.589Z,6.30
2022-08-02T17:21:38.643Z,6.80
2022-08-02T17:26:41.026Z,6.75
2022-08-02T17:32:04.960Z,7.38
2022-08-02T17:37:08.541Z,9.10
2022-08-02T17:42:11.135Z,7.93
2022-08-02T17:47:41.959Z,8.02
2022-08-02T17:52:59.933Z,6.15
2022-08-02T17:58:02.583Z,7.47
2022-08-02T18:03:08.007Z,6.28
2022-08-02T18:08:14.056Z,17.53
2022-08-02T18:13:17.559Z,10.27
2022-08-02T18:18:29.165Z,7.70
2022-08-02T18:23:32.430Z,9.40
2022-08-02T18:28:46.247Z,8.73
2022-08-02T18:34:13.369Z,6.47
2022-08-02T18:39:16.631Z,10.05
2022-08-02T18:44:19.006Z,8.15
2022-08-02T18:49:22.606Z,10.80
2022-08-02T18:54:26.549Z,9.88
2022-08-02T18:59:36.739Z,14.20
2022-08-02T19:05:06.907Z,13.52
2022-08-02T19:10:36.656Z,11.93
2022-08-02T19:15:39.718Z,11.60
2022-08-02T19:20:47.442Z,12.00
2022-08-02T19:25:54.739Z,14.00
2022-08-02T19:30:59.519Z,13.35
2022-08-02T19:36:03.715Z,16.00
2022-08-02T19:41:06.805Z,16.67
2022-08-02T19:46:15.524Z,13.80
2022-08-02T19:56:40.922Z,12.03
2022-08-02T20:01:48.543Z,12.27
2022-08-02T20:06:52.023Z,13.03
2022-08-02T20:11:55.311Z,12.57
2022-08-02T20:16:57.811Z,11.20
2022-08-02T20:22:00.751Z,12.00
2022-08-02T20:27:03.614Z,12.90
2022-08-02T20:32:07.828Z,12.80
2022-08-02T20:38:01.283Z,12.07
2022-08-02T20:42:34.372Z,11.53
2022-08-02T20:47:39.814Z,12.00
2022-08-02T20:52:42.731Z,12.77
2022-08-02T20:57:49.113Z,10.97
2022-08-02T21:03:04.460Z,12.85
2022-08-02T21:08:06.922Z,10.73
2022-08-02T21:13:22.293Z,10.83
2022-08-02T21:18:39.620Z,10.93
2022-08-02T21:23:48.326Z,9.60
2022-08-02T21:28:51.428Z,8.40
2022-08-02T21:33:58.573Z,9.90
2022-08-02T21:39:08.817Z,9.60
2022-08-02T21:44:11.578Z,10.10
2022-08-02T21:49:14.615Z,10.40
2022-08-02T21:54:20.971Z,11.40
2022-08-02T21:59:26.012Z,10.83
2022-08-02T22:04:29.015Z,9.80
2022-08-02T22:09:42.817Z,10.23
2022-08-02T22:14:54.951Z,9.33
2022-08-02T22:19:57.953Z,9.60
2022-08-02T22:25:00.476Z,8.67
2022-08-02T22:30:07.072Z,8.47
2022-08-02T22:35:12.345Z,8.40
2022-08-02T22:40:14.845Z,8.23
2022-08-02T22:45:17.119Z,8.43
2022-08-02T22:50:19.543Z,9.17
2022-08-02T22:55:23.436Z,8.93
2022-08-02T23:00:26.188Z,10.10
2022-08-02T23:05:28.487Z,8.73
2022-08-02T23:10:30.672Z,8.20
2022-08-02T23:15:51.389Z,9.10
2022-08-02T23:20:53.580Z,10.20
2022-08-02T23:25:55.741Z,8.23
2022-08-02T23:30:57.919Z,8.57
2022-08-02T23:36:00.100Z,8.37
2022-08-02T23:41:04.889Z,8.13
2022-08-02T23:46:07.152Z,9.23
2022-08-02T23:51:09.363Z,8.33
2022-08-02T23:56:17.834Z,8.35
